createdAt,value
2017-07-20T00:00:17.991Z,0
2017-07-20T00:01:19.322Z,0
2017-07-20T00:02:20.556Z,0
2017-07-20T00:03:21.811Z,0
2017-07-20T00:04:23.063Z,0
2017-07-20T00:05:24.288Z,0
2017-07-20T00:06:25.586Z,0
2017-07-20T00:07:26.864Z,0
2017-07-20T00:08:28.105Z,0
2017-07-20T00:09:29.339Z,0
2017-07-20T00:10:30.577Z,0
2017-07-20T00:11:31.910Z,0
2017-07-20T00:12:33.198Z,0
2017-07-20T00:13:34.466Z,0
2017-07-20T00:14:35.697Z,0
2017-07-20T00:15:36.998Z,0
2017-07-20T00:16:38.245Z,0
2017-07-20T00:17:39.498Z,0
2017-07-20T00:18:40.739Z,0
2017-07-20T00:19:41.980Z,0
2017-07-20T00:20:43.219Z,0
2017-07-20T00:21:44.454Z,0
2017-07-20T00:22:45.687Z,0
2017-07-20T00:23:46.964Z,0
2017-07-20T00:24:48.177Z,0
2017-07-20T00:25:49.488Z,0
2017-07-20T00:26:50.727Z,0
2017-07-20T00:27:51.964Z,0
2017-07-20T00:28:53.207Z,0
2017-07-20T00:29:54.449Z,0
2017-07-20T00:30:55.717Z,0
2017-07-20T00:31:56.959Z,0
2017-07-20T00:32:58.206Z,0
2017-07-20T00:33:59.488Z,0
2017-07-20T00:35:00.709Z,0
2017-07-20T00:36:01.955Z,0
2017-07-20T00:37:03.205Z,0
2017-07-20T00:38:04.444Z,0
2017-07-20T00:39:05.687Z,0
2017-07-20T00:40:07.028Z,0
2017-07-20T00:41:08.265Z,0
2017-07-20T00:42:09.499Z,0
2017-07-20T00:43:10.739Z,0
2017-07-20T00:44:11.975Z,0
2017-07-20T00:45:13.227Z,0
2017-07-20T00:46:14.464Z,0
2017-07-20T00:47:15.710Z,0
2017-07-20T00:48:16.966Z,0
2017-07-20T00:49:18.198Z,0
2017-07-20T00:50:19.484Z,0
2017-07-20T00:51:20.733Z,0
2017-07-20T00:52:21.971Z,0
2017-07-20T00:53:23.276Z,0
2017-07-20T00:54:24.517Z,0
2017-07-20T00:55:25.754Z,0
2017-07-20T00:56:27.071Z,0
2017-07-20T00:57:28.311Z,0
2017-07-20T00:58:29.559Z,0
2017-07-20T00:59:30.795Z,0
2017-07-20T01:00:32.036Z,0
2017-07-20T01:01:33.286Z,0
2017-07-20T01:02:34.564Z,0
2017-07-20T01:03:35.766Z,0
2017-07-20T01:04:37.024Z,0
2017-07-20T01:05:38.301Z,0
2017-07-20T01:06:39.567Z,0
2017-07-20T01:07:40.814Z,0
2017-07-20T01:08:42.050Z,0
2017-07-20T01:09:43.328Z,0
2017-07-20T01:10:44.612Z,0
2017-07-20T01:11:45.922Z,0
2017-07-20T01:12:47.155Z,0
2017-07-20T01:13:48.405Z,0
2017-07-20T01:14:49.646Z,0
2017-07-20T01:15:50.909Z,0
2017-07-20T01:16:52.141Z,0
2017-07-20T01:17:53.485Z,0
2017-07-20T01:18:54.730Z,0
2017-07-20T01:19:55.977Z,0
2017-07-20T01:20:57.232Z,0
2017-07-20T01:21:58.465Z,0
2017-07-20T01:22:59.776Z,0
2017-07-20T01:24:01.066Z,0
2017-07-20T01:25:02.308Z,0
2017-07-20T01:26:03.561Z,0
2017-07-20T01:27:04.784Z,0
2017-07-20T01:28:06.025Z,0
2017-07-20T01:29:07.332Z,0
2017-07-20T01:30:08.601Z,0
2017-07-20T01:31:09.842Z,0
2017-07-20T01:32:11.080Z,0
2017-07-20T01:33:12.313Z,0
2017-07-20T01:34:13.587Z,0
2017-07-20T01:35:14.824Z,0
2017-07-20T01:36:16.065Z,0
2017-07-20T01:37:17.316Z,0
2017-07-20T01:38:18.563Z,0
2017-07-20T01:39:19.810Z,0
2017-07-20T01:40:21.047Z,0
2017-07-20T01:41:22.279Z,0
2017-07-20T01:42:23.569Z,0
2017-07-20T01:43:24.816Z,0
2017-07-20T01:44:26.057Z,0
2017-07-20T01:45:27.498Z,0
2017-07-20T01:46:28.735Z,0
2017-07-20T01:47:30.101Z,0
2017-07-20T01:48:31.361Z,0
2017-07-20T01:49:32.583Z,0
2017-07-20T01:50:33.823Z,0
2017-07-20T01:51:35.063Z,0
2017-07-20T01:52:36.296Z,0
2017-07-20T01:53:37.535Z,0
2017-07-20T01:54:38.802Z,0
2017-07-20T01:55:40.033Z,0
2017-07-20T01:56:41.286Z,0
2017-07-20T01:57:42.531Z,0
2017-07-20T01:58:43.776Z,0
2017-07-20T01:59:45.007Z,0
2017-07-20T02:00:46.288Z,0
2017-07-20T02:01:47.648Z,0
2017-07-20T02:02:48.891Z,0
2017-07-20T02:03:50.139Z,0
2017-07-20T02:04:51.376Z,0
2017-07-20T02:05:52.612Z,0
2017-07-20T02:06:53.857Z,0
2017-07-20T02:07:55.081Z,0
2017-07-20T02:08:56.395Z,0
2017-07-20T02:09:57.639Z,0
2017-07-20T02:10:58.958Z,0
2017-07-20T02:12:00.230Z,0
2017-07-20T02:13:01.432Z,0
2017-07-20T02:14:02.685Z,0
2017-07-20T02:15:03.930Z,0
2017-07-20T02:16:05.231Z,0
2017-07-20T02:17:06.462Z,0
2017-07-20T02:18:07.703Z,0
2017-07-20T02:19:08.944Z,0
2017-07-20T02:20:10.182Z,0
2017-07-20T02:21:11.421Z,0
2017-07-20T02:22:12.656Z,0
2017-07-20T02:23:13.890Z,0
2017-07-20T02:24:15.260Z,0
2017-07-20T02:25:16.495Z,0
2017-07-20T02:26:17.742Z,0
2017-07-20T02:27:19.078Z,0
2017-07-20T02:28:20.320Z,0
2017-07-20T02:29:21.571Z,0
2017-07-20T02:30:22.819Z,0
2017-07-20T02:31:24.043Z,0
2017-07-20T02:32:25.286Z,0
2017-07-20T02:33:26.521Z,0
2017-07-20T02:34:27.819Z,0
2017-07-20T02:35:29.164Z,0
2017-07-20T02:36:30.418Z,0
2017-07-20T02:37:31.671Z,0
2017-07-20T02:38:32.898Z,0
2017-07-20T02:39:34.131Z,0
2017-07-20T02:40:35.483Z,0
2017-07-20T02:41:36.795Z,0
2017-07-20T02:42:38.044Z,0
2017-07-20T02:43:39.292Z,0
2017-07-20T02:44:40.524Z,0
2017-07-20T02:45:41.837Z,0
2017-07-20T02:46:43.074Z,0
2017-07-20T02:47:44.313Z,0
2017-07-20T02:48:45.552Z,0
2017-07-20T02:49:46.813Z,0
2017-07-20T02:50:48.160Z,0
2017-07-20T02:51:49.697Z,0
2017-07-20T02:52:50.928Z,0
2017-07-20T02:53:52.171Z,0
2017-07-20T02:54:53.408Z,0
2017-07-20T02:55:54.657Z,0
2017-07-20T02:56:56.114Z,0
2017-07-20T02:57:57.357Z,0
2017-07-20T02:58:58.612Z,0
2017-07-20T02:59:59.853Z,0
2017-07-20T03:01:01.123Z,0
2017-07-20T03:02:02.339Z,0
2017-07-20T03:03:03.578Z,0
2017-07-20T03:04:04.818Z,4
2017-07-20T03:05:06.054Z,4
2017-07-20T03:06:07.316Z,4
2017-07-20T03:07:08.543Z,4
2017-07-20T03:08:09.780Z,4
2017-07-20T03:09:11.061Z,4
2017-07-20T03:10:12.287Z,4
2017-07-20T03:11:13.620Z,4
2017-07-20T03:12:14.857Z,8
2017-07-20T03:13:16.101Z,8
2017-07-20T03:14:17.340Z,8
2017-07-20T03:15:18.597Z,12
2017-07-20T03:16:19.828Z,8
2017-07-20T03:17:21.179Z,12
2017-07-20T03:18:22.426Z,16
2017-07-20T03:19:23.673Z,12
2017-07-20T03:20:24.924Z,12
2017-07-20T03:21:26.189Z,12
2017-07-20T03:22:27.488Z,16
2017-07-20T03:23:28.731Z,16
2017-07-20T03:24:29.976Z,12
2017-07-20T03:25:31.217Z,16
2017-07-20T03:26:32.454Z,16
2017-07-20T03:27:33.695Z,20
2017-07-20T03:28:35.026Z,20
2017-07-20T03:29:36.271Z,20
2017-07-20T03:30:37.552Z,24
2017-07-20T03:31:38.789Z,24
2017-07-20T03:32:40.022Z,28
2017-07-20T03:33:41.258Z,32
2017-07-20T03:34:42.495Z,36
2017-07-20T03:35:43.829Z,32
2017-07-20T03:36:45.095Z,32
2017-07-20T03:37:46.321Z,32
2017-07-20T03:38:47.569Z,32
2017-07-20T03:39:48.811Z,32
2017-07-20T03:40:50.044Z,36
2017-07-20T03:41:51.269Z,36
2017-07-20T03:42:52.644Z,40
2017-07-20T03:43:53.881Z,40
2017-07-20T03:44:55.117Z,44
2017-07-20T03:45:56.371Z,40
2017-07-20T03:46:57.616Z,44
2017-07-20T03:47:58.872Z,48
2017-07-20T03:49:00.094Z,52
2017-07-20T03:50:01.431Z,56
2017-07-20T03:51:02.681Z,64
2017-07-20T03:52:03.900Z,68
2017-07-20T03:53:05.129Z,80
2017-07-20T03:54:06.396Z,88
2017-07-20T03:55:07.705Z,108
2017-07-20T03:56:08.956Z,132
2017-07-20T03:57:10.201Z,156
2017-07-20T03:58:11.487Z,180
2017-07-20T03:59:12.721Z,212
2017-07-20T04:00:13.951Z,240
2017-07-20T04:01:15.212Z,276
2017-07-20T04:02:16.465Z,308
2017-07-20T04:03:17.851Z,344
2017-07-20T04:04:19.157Z,384
2017-07-20T04:05:20.397Z,432
2017-07-20T04:06:21.634Z,464
2017-07-20T04:07:22.935Z,436
2017-07-20T04:08:24.166Z,396
2017-07-20T04:09:25.413Z,352
2017-07-20T04:10:26.652Z,336
2017-07-20T04:11:27.895Z,352
2017-07-20T04:12:29.132Z,360
2017-07-20T04:13:30.369Z,364
2017-07-20T04:14:31.670Z,364
2017-07-20T04:15:32.970Z,380
2017-07-20T04:16:34.237Z,396
2017-07-20T04:17:35.457Z,408
2017-07-20T04:18:36.693Z,416
2017-07-20T04:19:37.975Z,416
2017-07-20T04:20:39.222Z,436
2017-07-20T04:21:40.594Z,460
2017-07-20T04:22:41.829Z,476
2017-07-20T04:23:43.072Z,484
2017-07-20T04:24:44.303Z,464
2017-07-20T04:25:45.593Z,404
2017-07-20T04:26:46.854Z,356
2017-07-20T04:27:48.135Z,324
2017-07-20T04:28:49.364Z,296
2017-07-20T04:29:50.627Z,284
2017-07-20T04:30:51.847Z,268
2017-07-20T04:31:53.092Z,260
2017-07-20T04:32:54.318Z,248
2017-07-20T04:33:55.566Z,244
2017-07-20T04:34:56.813Z,244
2017-07-20T04:35:58.046Z,236
2017-07-20T04:36:59.289Z,228
2017-07-20T04:38:00.549Z,224
2017-07-20T04:39:01.783Z,220
2017-07-20T04:40:03.029Z,212
2017-07-20T04:41:04.279Z,208
2017-07-20T04:42:05.511Z,208
2017-07-20T04:43:06.750Z,208
2017-07-20T04:44:07.998Z,208
2017-07-20T04:45:09.266Z,216
2017-07-20T04:46:10.492Z,216
2017-07-20T04:47:11.777Z,220
2017-07-20T04:48:13.046Z,232
2017-07-20T04:49:14.281Z,248
2017-07-20T04:50:15.539Z,260
2017-07-20T04:51:16.756Z,264
2017-07-20T04:52:18.026Z,272
2017-07-20T04:53:19.384Z,276
2017-07-20T04:54:20.643Z,284
2017-07-20T04:55:21.860Z,280
2017-07-20T04:56:23.138Z,260
2017-07-20T04:57:24.351Z,224
2017-07-20T04:58:25.630Z,188
2017-07-20T04:59:26.958Z,164
2017-07-20T05:00:28.196Z,164
2017-07-20T05:01:29.473Z,188
2017-07-20T05:02:30.711Z,220
2017-07-20T05:03:31.944Z,244
2017-07-20T05:04:33.216Z,260
2017-07-20T05:05:34.434Z,264
2017-07-20T05:06:35.682Z,264
2017-07-20T05:07:36.934Z,252
2017-07-20T05:08:38.179Z,240
2017-07-20T05:09:39.415Z,224
2017-07-20T05:10:40.659Z,208
2017-07-20T05:11:42.053Z,192
2017-07-20T05:12:43.357Z,172
2017-07-20T05:13:44.595Z,160
2017-07-20T05:14:45.832Z,156
2017-07-20T05:15:47.070Z,156
2017-07-20T05:16:48.316Z,168
2017-07-20T05:17:49.606Z,180
2017-07-20T05:18:50.849Z,188
2017-07-20T05:19:52.084Z,196
2017-07-20T05:20:53.347Z,196
2017-07-20T05:21:54.568Z,200
2017-07-20T05:22:55.801Z,204
2017-07-20T05:23:57.088Z,208
2017-07-20T05:24:58.328Z,216
2017-07-20T05:25:59.624Z,220
2017-07-20T05:27:00.878Z,220
2017-07-20T05:28:02.117Z,216
2017-07-20T05:29:03.350Z,220
2017-07-20T05:30:04.589Z,232
2017-07-20T05:31:05.908Z,248
2017-07-20T05:32:07.155Z,272
2017-07-20T05:33:08.404Z,268
2017-07-20T05:34:09.641Z,264
2017-07-20T05:35:10.880Z,248
2017-07-20T05:36:12.129Z,236
2017-07-20T05:37:13.362Z,224
2017-07-20T05:38:14.725Z,220
2017-07-20T05:39:15.956Z,236
2017-07-20T05:40:17.207Z,260
2017-07-20T05:41:18.448Z,280
2017-07-20T05:42:19.684Z,288
2017-07-20T05:43:21.123Z,292
2017-07-20T05:44:22.344Z,288
2017-07-20T05:45:23.622Z,284
2017-07-20T05:46:24.857Z,288
2017-07-20T05:47:26.111Z,296
2017-07-20T05:48:27.373Z,300
2017-07-20T05:49:28.610Z,304
2017-07-20T05:50:29.908Z,316
2017-07-20T05:51:31.206Z,320
2017-07-20T05:52:32.447Z,328
2017-07-20T05:53:33.725Z,336
2017-07-20T05:54:34.972Z,356
2017-07-20T05:55:36.216Z,380
2017-07-20T05:56:37.464Z,412
2017-07-20T05:57:38.702Z,432
2017-07-20T05:58:39.938Z,464
2017-07-20T05:59:41.517Z,492
2017-07-20T06:00:42.766Z,516
2017-07-20T06:01:44.015Z,532
2017-07-20T06:02:45.274Z,544
2017-07-20T06:03:46.495Z,552
2017-07-20T06:04:47.730Z,560
2017-07-20T06:05:48.977Z,568
2017-07-20T06:06:50.293Z,576
2017-07-20T06:07:51.619Z,592
2017-07-20T06:08:52.860Z,584
2017-07-20T06:09:54.101Z,588
2017-07-20T06:10:55.570Z,588
2017-07-20T06:11:56.787Z,600
2017-07-20T06:12:58.136Z,632
2017-07-20T06:13:59.392Z,664
2017-07-20T06:15:00.615Z,684
2017-07-20T06:16:01.903Z,712
2017-07-20T06:17:03.150Z,728
2017-07-20T06:18:04.379Z,756
2017-07-20T06:19:05.624Z,784
2017-07-20T06:20:06.969Z,824
2017-07-20T06:21:08.264Z,872
2017-07-20T06:22:09.525Z,944
2017-07-20T06:23:10.752Z,1016
2017-07-20T06:24:12.000Z,1092
2017-07-20T06:25:13.368Z,1180
2017-07-20T06:26:14.642Z,1284
2017-07-20T06:27:15.892Z,1384
2017-07-20T06:28:17.152Z,1520
2017-07-20T06:29:18.440Z,1668
2017-07-20T06:30:19.684Z,1824
2017-07-20T06:31:20.918Z,1968
2017-07-20T06:32:22.204Z,2136
2017-07-20T06:33:23.537Z,2312
2017-07-20T06:34:24.788Z,2524
2017-07-20T06:35:26.025Z,2772
2017-07-20T06:36:27.277Z,3060
2017-07-20T06:37:28.520Z,3320
2017-07-20T06:38:29.894Z,3424
2017-07-20T06:39:31.158Z,3416
2017-07-20T06:40:32.414Z,3392
2017-07-20T06:41:33.659Z,3432
2017-07-20T06:42:34.906Z,3568
2017-07-20T06:43:36.248Z,3800
2017-07-20T06:44:37.510Z,4176
2017-07-20T06:45:38.751Z,4572
2017-07-20T06:46:39.993Z,4924
2017-07-20T06:47:41.241Z,5212
2017-07-20T06:48:42.482Z,5500
2017-07-20T06:49:43.719Z,5720
2017-07-20T06:50:44.964Z,5868
2017-07-20T06:51:46.257Z,6120
2017-07-20T06:52:47.498Z,6704
2017-07-20T06:53:48.735Z,7560
2017-07-20T06:54:49.984Z,8612
2017-07-20T06:55:51.282Z,9720
2017-07-20T06:56:52.492Z,10724
2017-07-20T06:57:54.090Z,11380
2017-07-20T06:58:56.179Z,11836
2017-07-20T06:59:57.318Z,11632
2017-07-20T07:00:58.570Z,11532
2017-07-20T07:01:59.875Z,10964
2017-07-20T07:03:01.115Z,10396
2017-07-20T07:04:02.369Z,10660
2017-07-20T07:05:03.627Z,9784
2017-07-20T07:06:04.852Z,9856
2017-07-20T07:07:06.093Z,9796
2017-07-20T07:08:07.333Z,9968
2017-07-20T07:09:08.575Z,9880
2017-07-20T07:10:09.814Z,10408
2017-07-20T07:11:11.059Z,11184
2017-07-20T07:12:12.349Z,12188
2017-07-20T07:13:13.591Z,12552
2017-07-20T07:14:14.834Z,12756
2017-07-20T07:15:16.095Z,12104
2017-07-20T07:16:17.348Z,11340
2017-07-20T07:17:18.581Z,10668
2017-07-20T07:18:19.826Z,9988
2017-07-20T07:19:21.075Z,9496
2017-07-20T07:20:22.312Z,9188
2017-07-20T07:21:23.611Z,9132
2017-07-20T07:22:24.854Z,9280
2017-07-20T07:23:26.090Z,9408
2017-07-20T07:24:27.356Z,9616
2017-07-20T07:25:28.571Z,10120
2017-07-20T07:26:29.872Z,10364
2017-07-20T07:27:31.124Z,10488
2017-07-20T07:28:32.364Z,10876
2017-07-20T07:29:33.610Z,10708
2017-07-20T07:30:34.864Z,10296
2017-07-20T07:31:36.113Z,9680
2017-07-20T07:32:37.400Z,8848
2017-07-20T07:33:38.648Z,7272
2017-07-20T07:34:39.896Z,5072
2017-07-20T07:35:41.215Z,3940
2017-07-20T07:36:42.456Z,3976
2017-07-20T07:37:43.696Z,4764
2017-07-20T07:38:45.091Z,6936
2017-07-20T07:39:46.311Z,5480
2017-07-20T07:40:47.552Z,4768
2017-07-20T07:41:48.798Z,4788
2017-07-20T07:42:50.038Z,4556
2017-07-20T07:43:51.348Z,5872
2017-07-20T07:44:52.497Z,7852
2017-07-20T07:45:53.796Z,9884
2017-07-20T07:46:55.091Z,12368
2017-07-20T07:47:56.327Z,13440
2017-07-20T07:48:57.573Z,15144
2017-07-20T07:49:58.814Z,17856
2017-07-20T07:51:00.091Z,19456
2017-07-20T07:52:01.365Z,17824
2017-07-20T07:53:02.647Z,19168
2017-07-20T07:54:03.977Z,16108
2017-07-20T07:55:05.320Z,14072
2017-07-20T07:56:06.577Z,14916
2017-07-20T07:57:07.897Z,12164
2017-07-20T07:58:09.171Z,9248
2017-07-20T07:59:10.377Z,7684
2017-07-20T08:00:11.682Z,6540
2017-07-20T08:01:12.917Z,6412
2017-07-20T08:02:14.161Z,6552
2017-07-20T08:03:15.429Z,6480
2017-07-20T08:04:16.699Z,6212
2017-07-20T08:05:17.927Z,5400
2017-07-20T08:06:19.236Z,4068
2017-07-20T08:07:20.463Z,3704
2017-07-20T08:08:21.721Z,3696
2017-07-20T08:09:22.942Z,3224
2017-07-20T08:10:24.187Z,2636
2017-07-20T08:11:25.451Z,2312
2017-07-20T08:12:26.723Z,2328
2017-07-20T08:13:27.968Z,2640
2017-07-20T08:14:29.211Z,2596
2017-07-20T08:15:30.447Z,3488
2017-07-20T08:16:31.778Z,3856
2017-07-20T08:17:33.020Z,3704
2017-07-20T08:18:34.263Z,4084
2017-07-20T08:19:35.511Z,4040
2017-07-20T08:20:36.753Z,3980
2017-07-20T08:21:38.029Z,3980
2017-07-20T08:22:39.309Z,4140
2017-07-20T08:23:40.760Z,5208
2017-07-20T08:24:42.017Z,6344
2017-07-20T08:25:43.260Z,7660
2017-07-20T08:26:44.500Z,5820
2017-07-20T08:27:45.746Z,4488
2017-07-20T08:28:47.037Z,4408
2017-07-20T08:29:48.264Z,5740
2017-07-20T08:30:49.573Z,6896
2017-07-20T08:31:50.812Z,8620
2017-07-20T08:32:52.049Z,9012
2017-07-20T08:33:53.296Z,7176
2017-07-20T08:34:54.549Z,6988
2017-07-20T08:35:55.818Z,8660
2017-07-20T08:36:57.096Z,10352
2017-07-20T08:37:58.341Z,12672
2017-07-20T08:38:59.624Z,13792
2017-07-20T08:40:00.862Z,10496
2017-07-20T08:41:02.129Z,11344
2017-07-20T08:42:03.380Z,11416
2017-07-20T08:43:04.629Z,10116
2017-07-20T08:44:05.848Z,7964
2017-07-20T08:45:07.161Z,8896
2017-07-20T08:46:08.405Z,8044
2017-07-20T08:47:09.664Z,5700
2017-07-20T08:48:10.901Z,6592
2017-07-20T08:49:12.131Z,5700
2017-07-20T08:50:13.417Z,5868
2017-07-20T08:51:14.662Z,5724
2017-07-20T08:52:15.919Z,6540
2017-07-20T08:53:17.144Z,7648
2017-07-20T08:54:18.447Z,10676
2017-07-20T08:55:19.808Z,12212
2017-07-20T08:56:21.033Z,11476
2017-07-20T08:57:22.276Z,8012
2017-07-20T08:58:23.513Z,7468
2017-07-20T08:59:24.754Z,10184
2017-07-20T09:00:26.001Z,13112
2017-07-20T09:01:27.243Z,14276
2017-07-20T09:02:28.604Z,13328
2017-07-20T09:03:29.778Z,11556
2017-07-20T09:04:31.037Z,8108
2017-07-20T09:05:32.280Z,7604
2017-07-20T09:06:33.525Z,10788
2017-07-20T09:07:34.775Z,10372
2017-07-20T09:08:36.013Z,10292
2017-07-20T09:09:37.256Z,11076
2017-07-20T09:10:38.502Z,12296
2017-07-20T09:11:39.741Z,10020
2017-07-20T09:12:41.012Z,9736
2017-07-20T09:13:42.257Z,8004
2017-07-20T09:14:43.532Z,9848
2017-07-20T09:15:44.821Z,14416
2017-07-20T09:16:46.047Z,15132
2017-07-20T09:17:47.293Z,11364
2017-07-20T09:18:48.535Z,10280
2017-07-20T09:19:49.775Z,9768
2017-07-20T09:20:51.036Z,10516
2017-07-20T09:21:52.273Z,12668
2017-07-20T09:22:53.578Z,16960
2017-07-20T09:23:54.818Z,10796
2017-07-20T09:24:56.074Z,11364
2017-07-20T09:25:57.344Z,10184
2017-07-20T09:26:58.568Z,10580
2017-07-20T09:27:59.885Z,8728
2017-07-20T09:29:01.158Z,12368
2017-07-20T09:30:02.404Z,16404
2017-07-20T09:31:03.642Z,12288
2017-07-20T09:32:04.902Z,10460
2017-07-20T09:33:06.118Z,11456
2017-07-20T09:34:07.383Z,39136
2017-07-20T09:35:08.693Z,41792
2017-07-20T09:36:09.935Z,61120
2017-07-20T09:37:11.290Z,36640
2017-07-20T09:38:12.552Z,25920
2017-07-20T09:39:13.792Z,15936
2017-07-20T09:40:15.065Z,23168
2017-07-20T09:41:16.300Z,32224
2017-07-20T09:42:17.551Z,44672
2017-07-20T09:43:18.793Z,25504
2017-07-20T09:44:20.048Z,73344
2017-07-20T09:45:21.390Z,74848
2017-07-20T09:46:22.640Z,32960
2017-07-20T09:47:23.928Z,68960
2017-07-20T09:48:25.177Z,54816
2017-07-20T09:49:26.429Z,87456
2017-07-20T09:50:27.655Z,79264
2017-07-20T09:51:28.901Z,72448
2017-07-20T09:52:30.166Z,59680
2017-07-20T09:53:31.430Z,44960
2017-07-20T09:54:32.667Z,30912
2017-07-20T09:55:33.918Z,69088
2017-07-20T09:56:35.166Z,69632
2017-07-20T09:57:36.429Z,15996
2017-07-20T09:58:37.681Z,12980
2017-07-20T09:59:38.939Z,11356
2017-07-20T10:00:40.192Z,12716
2017-07-20T10:01:41.434Z,10964
2017-07-20T10:02:42.680Z,14736
2017-07-20T10:03:43.935Z,38144
2017-07-20T10:04:45.306Z,37472
2017-07-20T10:05:46.437Z,23680
2017-07-20T10:06:47.766Z,30368
2017-07-20T10:07:49.072Z,21184
2017-07-20T10:08:50.318Z,31392
2017-07-20T10:09:51.569Z,48480
2017-07-20T10:10:52.812Z,98368
2017-07-20T10:11:54.075Z,85952
2017-07-20T10:12:55.323Z,22400
2017-07-20T10:13:56.579Z,12464
2017-07-20T10:14:57.833Z,26528
2017-07-20T10:15:59.098Z,17568
2017-07-20T10:17:00.336Z,18048
2017-07-20T10:18:01.609Z,12944
2017-07-20T10:19:02.943Z,13304
2017-07-20T10:20:04.197Z,12592
2017-07-20T10:21:05.458Z,11740
2017-07-20T10:22:06.710Z,11240
2017-07-20T10:23:07.959Z,15988
2017-07-20T10:24:09.263Z,24096
2017-07-20T10:25:10.529Z,35552
2017-07-20T10:26:11.777Z,22592
2017-07-20T10:27:13.136Z,25408
2017-07-20T10:28:14.377Z,20160
2017-07-20T10:29:15.678Z,18208
2017-07-20T10:30:16.919Z,15664
2017-07-20T10:31:18.324Z,15736
2017-07-20T10:32:19.570Z,21728
2017-07-20T10:33:20.824Z,18528
2017-07-20T10:34:22.078Z,21568
2017-07-20T10:35:23.413Z,40000
2017-07-20T10:36:24.678Z,36224
2017-07-20T10:37:25.929Z,29600
2017-07-20T10:38:27.197Z,58368
2017-07-20T10:39:28.481Z,28256
2017-07-20T10:40:29.727Z,22592
2017-07-20T10:41:30.978Z,21440
2017-07-20T10:42:32.217Z,17728
2017-07-20T10:43:33.475Z,15336
2017-07-20T10:44:34.718Z,16428
2017-07-20T10:45:35.967Z,16060
2017-07-20T10:46:37.210Z,14228
2017-07-20T10:47:38.476Z,12284
2017-07-20T10:48:39.736Z,14272
2017-07-20T10:49:40.999Z,20064
2017-07-20T10:50:42.262Z,24128
2017-07-20T10:51:43.491Z,27264
2017-07-20T10:52:44.736Z,30080
2017-07-20T10:53:45.981Z,29120
2017-07-20T10:54:47.237Z,27808
2017-07-20T10:55:48.479Z,26944
2017-07-20T10:56:49.864Z,24480
2017-07-20T10:57:51.118Z,22528
2017-07-20T10:58:52.389Z,21920
2017-07-20T10:59:53.617Z,20544
2017-07-20T11:00:54.866Z,20000
2017-07-20T11:01:56.135Z,19584
2017-07-20T11:02:57.439Z,19904
2017-07-20T11:03:58.685Z,19360
2017-07-20T11:04:59.940Z,20000
2017-07-20T11:06:01.204Z,21472
2017-07-20T11:07:02.542Z,21472
2017-07-20T11:08:03.934Z,24352
2017-07-20T11:09:05.169Z,20768
2017-07-20T11:10:06.468Z,12840
2017-07-20T11:11:07.667Z,9844
2017-07-20T11:12:09.114Z,9932
2017-07-20T11:13:10.373Z,9440
2017-07-20T11:14:11.625Z,9844
2017-07-20T11:15:12.953Z,11248
2017-07-20T11:16:14.202Z,10280
2017-07-20T11:17:15.551Z,12084
2017-07-20T11:18:16.804Z,16212
2017-07-20T11:19:18.109Z,17568
2017-07-20T11:20:19.466Z,18080
2017-07-20T11:21:20.732Z,18560
2017-07-20T11:22:21.962Z,17984
2017-07-20T11:23:23.231Z,18016
2017-07-20T11:24:24.489Z,18080
2017-07-20T11:25:25.822Z,17952
2017-07-20T11:26:27.122Z,18048
2017-07-20T11:27:28.375Z,18048
2017-07-20T11:28:29.626Z,17440
2017-07-20T11:29:30.877Z,16032
2017-07-20T11:30:32.154Z,14248
2017-07-20T11:31:33.525Z,12716
2017-07-20T11:32:34.785Z,11800
2017-07-20T11:33:36.025Z,11312
2017-07-20T11:34:37.276Z,11348
2017-07-20T11:35:38.521Z,11644
2017-07-20T11:36:39.786Z,12056
2017-07-20T11:37:41.117Z,12516
2017-07-20T11:38:42.396Z,12856
2017-07-20T11:39:43.737Z,13756
2017-07-20T11:40:44.977Z,16316
2017-07-20T11:41:46.233Z,18240
2017-07-20T11:42:47.572Z,19296
2017-07-20T11:43:48.834Z,19872
2017-07-20T11:44:50.081Z,20000
2017-07-20T11:45:51.440Z,19968
2017-07-20T11:46:52.680Z,19776
2017-07-20T11:47:53.927Z,19744
2017-07-20T11:48:55.189Z,19712
2017-07-20T11:49:56.431Z,19744
2017-07-20T11:50:57.695Z,19776
2017-07-20T11:51:58.944Z,20032
2017-07-20T11:53:00.196Z,20288
2017-07-20T11:54:01.457Z,20544
2017-07-20T11:55:02.709Z,20896
2017-07-20T11:56:03.977Z,21184
2017-07-20T11:57:05.244Z,21088
2017-07-20T11:58:06.478Z,20768
2017-07-20T11:59:07.738Z,20320
2017-07-20T12:00:08.996Z,19936
2017-07-20T12:01:10.245Z,19296
2017-07-20T12:02:11.488Z,18656
2017-07-20T12:03:12.851Z,18336
2017-07-20T12:04:14.078Z,17984
2017-07-20T12:05:15.323Z,17440
2017-07-20T12:06:16.567Z,17184
2017-07-20T12:07:17.816Z,16896
2017-07-20T12:08:19.178Z,16444
2017-07-20T12:09:20.425Z,16008
2017-07-20T12:10:21.727Z,15828
2017-07-20T12:11:22.973Z,15956
2017-07-20T12:12:24.219Z,15916
2017-07-20T12:13:25.631Z,15760
2017-07-20T12:14:26.877Z,16188
2017-07-20T12:15:28.128Z,16564
2017-07-20T12:16:29.395Z,16540
2017-07-20T12:17:30.641Z,16280
2017-07-20T12:18:31.880Z,17984
2017-07-20T12:19:33.152Z,18400
2017-07-20T12:20:34.395Z,17760
2017-07-20T12:21:35.667Z,16712
2017-07-20T12:22:36.911Z,15132
2017-07-20T12:23:38.165Z,14344
2017-07-20T12:24:39.415Z,13260
2017-07-20T12:25:40.719Z,12128
2017-07-20T12:26:41.966Z,10608
2017-07-20T12:27:43.231Z,9680
2017-07-20T12:28:44.475Z,9412
2017-07-20T12:29:45.743Z,8108
2017-07-20T12:30:46.981Z,8076
2017-07-20T12:31:48.248Z,8608
2017-07-20T12:32:49.485Z,11700
2017-07-20T12:33:50.748Z,13684
2017-07-20T12:34:51.966Z,11580
2017-07-20T12:35:53.240Z,10600
2017-07-20T12:36:54.496Z,10396
2017-07-20T12:37:55.750Z,14076
2017-07-20T12:38:57.001Z,11868
2017-07-20T12:39:58.256Z,10096
2017-07-20T12:40:59.505Z,8480
2017-07-20T12:42:00.756Z,8628
2017-07-20T12:43:02.003Z,8992
2017-07-20T12:44:03.254Z,8272
2017-07-20T12:45:04.503Z,8064
2017-07-20T12:46:05.848Z,8128
2017-07-20T12:47:07.109Z,8772
2017-07-20T12:48:08.356Z,8188
2017-07-20T12:49:09.653Z,8148
2017-07-20T12:50:10.921Z,8528
2017-07-20T12:51:12.151Z,8200
2017-07-20T12:52:13.414Z,7800
2017-07-20T12:53:14.659Z,8016
2017-07-20T12:54:15.917Z,8356
2017-07-20T12:55:17.163Z,10316
2017-07-20T12:56:18.408Z,8296
2017-07-20T12:57:19.737Z,7504
2017-07-20T12:58:20.966Z,7248
2017-07-20T12:59:22.213Z,6920
2017-07-20T13:00:23.460Z,6568
2017-07-20T13:01:24.711Z,6512
2017-07-20T13:02:25.940Z,5524
2017-07-20T13:03:27.181Z,5204
2017-07-20T13:04:28.495Z,5444
2017-07-20T13:05:29.728Z,5828
2017-07-20T13:06:31.028Z,6936
2017-07-20T13:07:32.280Z,8388
2017-07-20T13:08:33.523Z,9312
2017-07-20T13:09:34.784Z,9908
2017-07-20T13:10:36.003Z,9576
2017-07-20T13:11:37.306Z,6320
2017-07-20T13:12:38.773Z,4096
2017-07-20T13:13:40.019Z,4052
2017-07-20T13:14:41.268Z,3984
2017-07-20T13:15:42.514Z,3212
2017-07-20T13:16:43.775Z,3044
2017-07-20T13:17:45.130Z,2520
2017-07-20T13:18:46.391Z,2100
2017-07-20T13:19:47.624Z,2040
2017-07-20T13:20:48.883Z,2668
2017-07-20T13:21:50.124Z,3444
2017-07-20T13:22:51.479Z,4036
2017-07-20T13:23:52.736Z,5184
2017-07-20T13:24:53.977Z,6660
2017-07-20T13:25:55.349Z,7328
2017-07-20T13:26:56.582Z,7696
2017-07-20T13:27:57.838Z,8256
2017-07-20T13:28:59.082Z,8796
2017-07-20T13:30:00.324Z,8460
2017-07-20T13:31:01.565Z,8024
2017-07-20T13:32:02.798Z,7536
2017-07-20T13:33:04.039Z,7988
2017-07-20T13:34:05.282Z,10164
2017-07-20T13:35:06.537Z,13784
2017-07-20T13:36:07.821Z,16108
2017-07-20T13:37:09.064Z,17248
2017-07-20T13:38:10.322Z,17088
2017-07-20T13:39:11.651Z,15160
2017-07-20T13:40:12.892Z,12780
2017-07-20T13:41:14.190Z,12924
2017-07-20T13:42:15.432Z,12612
2017-07-20T13:43:16.772Z,10660
2017-07-20T13:44:18.033Z,9648
2017-07-20T13:45:19.296Z,10352
2017-07-20T13:46:20.575Z,11588
2017-07-20T13:47:21.821Z,10976
2017-07-20T13:48:23.085Z,10108
2017-07-20T13:49:24.314Z,9360
2017-07-20T13:50:25.681Z,8992
2017-07-20T13:51:26.935Z,8788
2017-07-20T13:52:28.192Z,9352
2017-07-20T13:53:29.429Z,10168